Ne plus se rappeler de moi
Bonjour et Bienvenue
Pas de session ouverte
Samedi 25/10/2014
d:\inetpub\wwwroot\acrroussillon\reservation\ACR\IMAGES\IMG1.JPGd:\inetpub\wwwroot\acrroussillon\reservation\ACR\IMAGES\IMG2.JPGd:\inetpub\wwwroot\acrroussillon\reservation\ACR/IMAGES/IMG3.jpg
00:00:00
Horaires du 25/10/2014 (Données à titre indicatif seulement).
Lever du soleil : 08h14 - Coucher du soleil : 18h51 (Heure Locale)
Jour aéronautique : 07h44 - Nuit aéronautique : 19h21 (Heure Locale)
Planning des réservations des aéronefs
Planning des réservations des aéronefs
2014/10/25 13:00
LFMP 251300Z 32012KT 290V350 9999 FEW040 SCT110 28/09 Q1018 NOSIG
Planning des réservations des aéronefs
2014/10/25 12:15
TAF LFMP 251100Z 2512/2612 33012KT 9999 NSC
TEMPO 2512/2519 33012G25KT
BECMG 2520/2522 26004KT
Informations sur les aéronefs
Informations sur les aéronefs
Modifications des Types de vols
ATTENTION PLUS DE PAIEMENT EN LIGNE DEPUIS LA MAISON
AEROCLUB DU ROUSSILLON. AVENUE MAURICE BELLONTE. 66000 PERPIGNAN. Tel : 04.68.73.48.18 Fax : 09.55.16.18.97 Courriel : aeroclub-roussillon@hotmail.fr
 METAR / TAF
LIENS UTILES
envoyer un e-mail
d:\inetpub\wwwroot\acrroussillon\reservation\ACR/IMAGES/Logo.jpg
Identifiez vous pour interaction
d:\inetpub\wwwroot\acrroussillon\reservation\ACR/IMAGES/Logo.jpg
Aéro-Club du Roussillon